DK-0009 weather

Bolhede Glider Field
Bolhede, South Denmark, Denmark

Public forecast

Using degrees Celsius for public forecast. Weather courtesy of forecast.io.

METAR (pilot weather report)

Closest report is Esbjerg Airport, 9.4 nm (17.3 km) SW. Retrieved 2019/09/16 19:20 UTC (0 seconds ago):

EKEB 161920Z AUTO 26006KT 9999 BKN051/// 11/07 Q1015

TAF (pilot weather forecast)

Forecast is more than 12 hours old.

Closest forecast is Esbjerg Airport, 9.4 nm (17.3 km) SW. Retrieved 2015/09/18 18:00 UTC (4 years ago):

TAF EKEB 181707Z 1818/1822 24008KT 9999 SCT025 TEMPO 1818/1820 -SHRA SCT020CB